createdAt,value
2023-03-28T00:00:38.925Z,100713.88
2023-03-28T00:01:20.563Z,100713.31
2023-03-28T00:02:02.168Z,100711.03
2023-03-28T00:02:43.935Z,100626.69
2023-03-28T00:03:27.227Z,100720.06
2023-03-28T00:04:11.561Z,100714.41
2023-03-28T00:04:53.286Z,100720.28
2023-03-28T00:05:35.174Z,100708.34
2023-03-28T00:06:18.526Z,100715.06
2023-03-28T00:07:00.644Z,100594.31
2023-03-28T00:07:42.467Z,100701.63
2023-03-28T00:08:24.076Z,100724.34
2023-03-28T00:09:05.930Z,100714.31
2023-03-28T00:09:50.266Z,100727.13
2023-03-28T00:10:31.991Z,100728.91
2023-03-28T00:11:20.292Z,100728.91
2023-03-28T00:12:02.259Z,100722.88
2023-03-28T00:12:43.832Z,100732.66
2023-03-28T00:13:25.675Z,100724.53
2023-03-28T00:14:08.288Z,100661.84
2023-03-28T00:14:49.943Z,100734.94
2023-03-28T00:15:31.787Z,100713.22
2023-03-28T00:16:14.401Z,100728.44
2023-03-28T00:16:57.140Z,100728.28
2023-03-28T00:17:41.712Z,100732.84
2023-03-28T00:18:23.426Z,100733.94
2023-03-28T00:19:11.603Z,100735.91
2023-03-28T00:19:53.517Z,100727.44
2023-03-28T00:20:38.597Z,100740.56
2023-03-28T00:21:25.928Z,100739.81
2023-03-28T00:22:08.472Z,100743.16
2023-03-28T00:22:50.259Z,100730.41
2023-03-28T00:23:33.875Z,100738.97
2023-03-28T00:24:18.710Z,100746.34
2023-03-28T00:25:00.387Z,100726.16
2023-03-28T00:25:43.469Z,100719.53
2023-03-28T00:26:26.839Z,100750.31
2023-03-28T00:27:08.587Z,100683.25
2023-03-28T00:27:50.612Z,100749.31
2023-03-28T00:28:34.641Z,100751.91
2023-03-28T00:29:20.826Z,100752.84
2023-03-28T00:30:04.951Z,100744.28
2023-03-28T00:30:46.580Z,100752.84
2023-03-28T00:31:28.292Z,100745.50
2023-03-28T00:32:11.040Z,100751.25
2023-03-28T00:32:53.121Z,100743.00
2023-03-28T00:33:34.903Z,100746.97
2023-03-28T00:34:17.718Z,100756.38
2023-03-28T00:34:59.409Z,100753.59
2023-03-28T00:35:41.167Z,100752.50
2023-03-28T00:36:29.484Z,100755.94
2023-03-28T00:37:17.139Z,100759.16
2023-03-28T00:37:59.087Z,100758.41
2023-03-28T00:38:41.681Z,100720.56
2023-03-28T00:39:23.521Z,100758.72
2023-03-28T00:40:07.621Z,100721.47
2023-03-28T00:40:49.238Z,100762.34
2023-03-28T00:41:39.695Z,100759.06
2023-03-28T00:42:23.047Z,100748.47
2023-03-28T00:43:04.713Z,100764.50
2023-03-28T00:43:47.760Z,100761.06
2023-03-28T00:44:44.303Z,100766.16
2023-03-28T00:45:27.024Z,100762.16
2023-03-28T00:46:21.108Z,100762.72
2023-03-28T00:47:02.871Z,100760.22
2023-03-28T00:47:51.686Z,100755.28
2023-03-28T00:48:33.870Z,100758.72
2023-03-28T00:49:28.156Z,100762.16
2023-03-28T00:50:27.489Z,100771.75
2023-03-28T00:51:11.421Z,100770.91
2023-03-28T00:52:03.248Z,100773.44
2023-03-28T00:52:58.114Z,100769.97
2023-03-28T00:53:39.772Z,100770.91
2023-03-28T00:54:21.626Z,100773.44
2023-03-28T00:55:04.793Z,100762.44
2023-03-28T00:55:52.552Z,100769.22
2023-03-28T00:56:37.647Z,100765.78
2023-03-28T00:57:19.811Z,100759.81
2023-03-28T00:58:09.799Z,100753.25
2023-03-28T00:58:52.368Z,100764.09
2023-03-28T00:59:36.971Z,100768.41
2023-03-28T01:00:19.180Z,100761.50
2023-03-28T01:01:01.939Z,100758.06
2023-03-28T01:01:45.290Z,100751.25
2023-03-28T01:02:27.056Z,100762.44
2023-03-28T01:03:09.026Z,100754.00
2023-03-28T01:04:02.201Z,100756.38
2023-03-28T01:04:59.378Z,100758.16
2023-03-28T01:05:43.751Z,100767.38
2023-03-28T01:06:26.081Z,100770.81
2023-03-28T01:07:07.876Z,100743.75
2023-03-28T01:07:58.208Z,100762.25
2023-03-28T01:08:43.739Z,100762.16
2023-03-28T01:09:26.835Z,100765.88
2023-03-28T01:10:09.350Z,100756.19
2023-03-28T01:10:51.318Z,100641.47
2023-03-28T01:11:36.702Z,100765.50
2023-03-28T01:12:20.207Z,100763.09
2023-03-28T01:13:03.351Z,100750.88
2023-03-28T01:13:49.020Z,100767.63
2023-03-28T01:14:32.523Z,100747.34
2023-03-28T01:15:16.413Z,100758.97
2023-03-28T01:16:08.226Z,100758.16
2023-03-28T01:16:51.296Z,100765.16
2023-03-28T01:17:33.001Z,100763.47
2023-03-28T01:18:16.198Z,100768.84
2023-03-28T01:19:03.029Z,100761.13
2023-03-28T01:20:06.458Z,100758.59
2023-03-28T01:20:57.174Z,100765.66
2023-03-28T01:22:02.358Z,100767.34
2023-03-28T01:23:16.853Z,100762.13
2023-03-28T01:24:23.117Z,100763.81
2023-03-28T01:25:38.402Z,100766.34
2023-03-28T01:26:40.533Z,100762.72
2023-03-28T01:27:41.780Z,100763.66
2023-03-28T01:28:44.339Z,100761.03
2023-03-28T01:29:47.303Z,100762.81
2023-03-28T01:30:49.820Z,100761.22
2023-03-28T01:32:18.369Z,100769.22
2023-03-28T01:33:35.283Z,100761.38
2023-03-28T01:35:02.517Z,100765.66
2023-03-28T01:35:50.176Z,100762.06
2023-03-28T01:36:57.027Z,100766.25
2023-03-28T01:37:47.692Z,100699.88
2023-03-28T01:38:38.310Z,100769.22
2023-03-28T01:39:39.284Z,100762.25
2023-03-28T01:40:26.638Z,100773.53
2023-03-28T01:41:34.222Z,100772.19
2023-03-28T01:42:51.011Z,100777.50
2023-03-28T01:44:08.845Z,100772.09
2023-03-28T01:45:11.518Z,100778.63
2023-03-28T01:46:15.411Z,100775.81
2023-03-28T01:47:07.341Z,100759.81
2023-03-28T01:47:57.789Z,100788.00
2023-03-28T01:48:48.446Z,100774.44
2023-03-28T01:49:43.334Z,100771.28
2023-03-28T01:50:38.061Z,100756.03
2023-03-28T01:51:45.807Z,100778.91
2023-03-28T01:52:37.373Z,100777.41
2023-03-28T01:53:25.433Z,100774.28
2023-03-28T01:54:10.686Z,100780.97
2023-03-28T01:54:55.202Z,100781.78
2023-03-28T01:56:04.496Z,100784.97
2023-03-28T01:56:58.245Z,100788.06
2023-03-28T01:57:56.652Z,100781.78
2023-03-28T01:58:47.973Z,100786.81
2023-03-28T01:59:47.951Z,100779.00
2023-03-28T02:00:45.895Z,100775.19
2023-03-28T02:01:37.896Z,100783.03
2023-03-28T02:02:49.460Z,100774.34
2023-03-28T02:03:47.788Z,100759.38
2023-03-28T02:04:50.048Z,100766.91
2023-03-28T02:05:34.782Z,100767.34
2023-03-28T02:06:21.109Z,100778.53
2023-03-28T02:07:04.352Z,100783.66
2023-03-28T02:07:54.593Z,100772.75
2023-03-28T02:08:49.085Z,100788.38
2023-03-28T02:09:43.697Z,100752.47
2023-03-28T02:10:42.352Z,100770.72
2023-03-28T02:11:44.146Z,100796.13
2023-03-28T02:12:40.408Z,100780.69
2023-03-28T02:13:30.495Z,100763.25
2023-03-28T02:14:28.630Z,100779.03
2023-03-28T02:15:32.157Z,100774.81
2023-03-28T02:16:54.250Z,100780.28
2023-03-28T02:17:52.844Z,100779.44
2023-03-28T02:18:51.848Z,100764.19
2023-03-28T02:19:55.032Z,100772.03
2023-03-28T02:20:43.661Z,100779.91
2023-03-28T02:21:34.157Z,100782.69
2023-03-28T02:22:58.956Z,100767.53
2023-03-28T02:23:53.841Z,100771.06
2023-03-28T02:25:05.410Z,100773.84
2023-03-28T02:25:51.991Z,100774.75
2023-03-28T02:26:53.816Z,100769.19
2023-03-28T02:27:57.565Z,100780.44
2023-03-28T02:28:54.577Z,100700.06
2023-03-28T02:29:54.542Z,100775.31
2023-03-28T02:31:01.744Z,100752.75
2023-03-28T02:31:43.391Z,100745.97
2023-03-28T02:32:25.025Z,100771.28
2023-03-28T02:33:09.712Z,100777.41
2023-03-28T02:33:52.561Z,100779.19
2023-03-28T02:34:35.088Z,100772.50
2023-03-28T02:35:26.683Z,100777.69
2023-03-28T02:36:16.899Z,100774.06
2023-03-28T02:37:13.767Z,100777.50
2023-03-28T02:38:18.102Z,100782.81
2023-03-28T02:39:17.606Z,100775.84
2023-03-28T02:40:22.098Z,100775.09
2023-03-28T02:41:09.788Z,100780.22
2023-03-28T02:42:12.618Z,100782.91
2023-03-28T02:43:20.869Z,100750.88
2023-03-28T02:44:21.980Z,100793.31
2023-03-28T02:45:14.344Z,100781.31
2023-03-28T02:46:17.541Z,100781.31
2023-03-28T02:47:26.896Z,100784.00
2023-03-28T02:48:28.738Z,100781.41
2023-03-28T02:49:17.710Z,100783.25
2023-03-28T02:50:25.692Z,100778.78
2023-03-28T02:51:07.223Z,100777.94
2023-03-28T02:52:14.786Z,100776.94
2023-03-28T02:53:10.802Z,100783.91
2023-03-28T02:54:12.835Z,100785.59
2023-03-28T02:55:03.408Z,100783.84
2023-03-28T02:56:06.913Z,100782.91
2023-03-28T02:57:34.580Z,100784.69
2023-03-28T02:58:29.255Z,100780.47
2023-03-28T02:59:27.612Z,100774.13
2023-03-28T03:00:17.111Z,100780.81
2023-03-28T03:00:58.830Z,100778.03
2023-03-28T03:01:41.532Z,100785.00
2023-03-28T03:02:24.000Z,100776.66
2023-03-28T03:03:11.306Z,100782.31
2023-03-28T03:03:53.729Z,100782.50
2023-03-28T03:04:36.075Z,100786.00
2023-03-28T03:05:20.653Z,100786.69
2023-03-28T03:06:05.472Z,100785.00
2023-03-28T03:06:48.324Z,100767.16
2023-03-28T03:07:32.047Z,100755.59
2023-03-28T03:08:14.596Z,100787.69
2023-03-28T03:08:56.345Z,100777.28
2023-03-28T03:09:38.578Z,100778.41
2023-03-28T03:10:21.986Z,100786.00
2023-03-28T03:11:11.528Z,100766.72
2023-03-28T03:12:04.440Z,100785.38
2023-03-28T03:12:47.566Z,100748.03
2023-03-28T03:13:29.209Z,100773.28
2023-03-28T03:14:12.110Z,100777.47
2023-03-28T03:14:53.834Z,100779.34
2023-03-28T03:15:54.535Z,100767.94
2023-03-28T03:16:38.775Z,100776.50
2023-03-28T03:17:22.161Z,100778.19
2023-03-28T03:18:04.475Z,100781.72
2023-03-28T03:18:47.531Z,100648.50
2023-03-28T03:19:30.357Z,100779.28
2023-03-28T03:20:12.274Z,100760.91
2023-03-28T03:20:54.816Z,100763.34
2023-03-28T03:21:37.276Z,100773.41
2023-03-28T03:22:20.878Z,100771.63
2023-03-28T03:23:05.379Z,100685.97
2023-03-28T03:23:50.444Z,100766.94
2023-03-28T03:24:34.521Z,100782.44
2023-03-28T03:25:16.588Z,100764.91
2023-03-28T03:26:08.385Z,100757.38
2023-03-28T03:26:56.262Z,100757.56
2023-03-28T03:27:39.378Z,100762.50
2023-03-28T03:28:23.124Z,100772.00
2023-03-28T03:29:06.125Z,100767.97
2023-03-28T03:29:48.422Z,100781.56
2023-03-28T03:30:32.558Z,100780.88
2023-03-28T03:31:32.909Z,100780.28
2023-03-28T03:32:53.307Z,100780.28
2023-03-28T03:33:35.380Z,100786.53
2023-03-28T03:34:19.633Z,100780.47
2023-03-28T03:35:07.166Z,100782.88
2023-03-28T03:35:49.889Z,100767.81
2023-03-28T03:36:32.862Z,100779.56
2023-03-28T03:37:17.912Z,100771.91
2023-03-28T03:38:00.797Z,100778.59
2023-03-28T03:38:42.694Z,100789.97
2023-03-28T03:39:29.574Z,100746.75
2023-03-28T03:40:11.387Z,100752.81
2023-03-28T03:40:55.161Z,100746.16
2023-03-28T03:41:37.789Z,100773.25
2023-03-28T03:42:21.652Z,100751.56
2023-03-28T03:43:03.376Z,100764.38
2023-03-28T03:43:47.049Z,100772.59
2023-03-28T03:44:28.910Z,100775.13
2023-03-28T03:45:11.206Z,100759.84
2023-03-28T03:45:57.768Z,100778.56
2023-03-28T03:46:41.748Z,100761.03
2023-03-28T03:47:23.500Z,100758.44
2023-03-28T03:48:05.613Z,100777.66
2023-03-28T03:48:50.039Z,100774.28
2023-03-28T03:49:32.612Z,100736.13
2023-03-28T03:50:18.561Z,100780.66
2023-03-28T03:51:00.479Z,100780.47
2023-03-28T03:51:43.070Z,100770.50
2023-03-28T03:52:30.066Z,100767.03
2023-03-28T03:53:11.797Z,100766.81
2023-03-28T03:54:01.211Z,100764.13
2023-03-28T03:54:50.623Z,100775.00
2023-03-28T03:55:32.595Z,100785.25
2023-03-28T03:56:14.243Z,100779.97
2023-03-28T03:57:07.613Z,100753.88
2023-03-28T03:57:49.245Z,100685.31
2023-03-28T03:58:31.444Z,100759.06
2023-03-28T03:59:16.092Z,100726.63
2023-03-28T03:59:58.066Z,100775.94
2023-03-28T04:00:41.096Z,100775.09
2023-03-28T04:01:40.017Z,100768.56
2023-03-28T04:02:40.872Z,100782.16
2023-03-28T04:03:24.555Z,100782.97
2023-03-28T04:04:08.513Z,100754.41
2023-03-28T04:05:10.375Z,100772.16
2023-03-28T04:06:05.206Z,100770.56
2023-03-28T04:06:47.815Z,100779.72
2023-03-28T04:07:30.905Z,100785.94
2023-03-28T04:08:13.003Z,100785.09
2023-03-28T04:08:56.873Z,100781.81
2023-03-28T04:09:59.340Z,100782.84
2023-03-28T04:10:45.025Z,100783.84
2023-03-28T04:11:27.745Z,100783.84
2023-03-28T04:12:12.056Z,100769.47
2023-03-28T04:13:00.749Z,100792.50
2023-03-28T04:13:43.009Z,100778.88
2023-03-28T04:14:24.657Z,100788.28
2023-03-28T04:15:15.511Z,100758.00
2023-03-28T04:16:16.719Z,100789.97
2023-03-28T04:17:04.506Z,100787.38
2023-03-28T04:17:46.200Z,100786.53
2023-03-28T04:18:34.129Z,100797.41
2023-03-28T04:19:17.056Z,100780.41
2023-03-28T04:19:58.692Z,100794.13
2023-03-28T04:20:41.686Z,100805.22
2023-03-28T04:21:30.927Z,100796.66
2023-03-28T04:22:14.217Z,100804.53
2023-03-28T04:23:05.557Z,100804.00
2023-03-28T04:23:48.287Z,100801.25
2023-03-28T04:24:44.636Z,100804.53
2023-03-28T04:25:33.200Z,100788.41
2023-03-28T04:26:26.239Z,100807.50
2023-03-28T04:27:29.705Z,100801.22
2023-03-28T04:28:12.903Z,100801.88
2023-03-28T04:29:09.856Z,100780.81
2023-03-28T04:29:53.793Z,100785.09
2023-03-28T04:31:01.677Z,100786.94
2023-03-28T04:32:13.059Z,100665.16
2023-03-28T04:33:18.262Z,100800.31
2023-03-28T04:34:00.407Z,100799.34
2023-03-28T04:34:45.797Z,100806.63
2023-03-28T04:35:35.368Z,100807.53
2023-03-28T04:36:21.087Z,100804.22
2023-03-28T04:37:11.773Z,100808.91
2023-03-28T04:38:02.655Z,100810.34
2023-03-28T04:38:45.746Z,100802.03
2023-03-28T04:39:49.690Z,100813.50
2023-03-28T04:40:50.057Z,100811.50
2023-03-28T04:42:01.973Z,100803.84
2023-03-28T04:43:09.653Z,100793.13
2023-03-28T04:43:55.692Z,100815.00
2023-03-28T04:44:37.272Z,100816.94
2023-03-28T04:45:19.786Z,100815.84
2023-03-28T04:46:03.092Z,100801.59
2023-03-28T04:46:45.064Z,100791.69
2023-03-28T04:47:28.227Z,100812.97
2023-03-28T04:48:09.970Z,100747.66
2023-03-28T04:48:56.763Z,100807.88
2023-03-28T04:49:42.046Z,100806.19
2023-03-28T04:50:23.669Z,100817.41
2023-03-28T04:51:05.808Z,100822.19
2023-03-28T04:51:48.814Z,100820.97
2023-03-28T04:52:30.404Z,100818.88
2023-03-28T04:53:13.080Z,100701.53
2023-03-28T04:54:09.020Z,100826.69
2023-03-28T04:54:59.272Z,100820.50
2023-03-28T04:55:40.958Z,100804.50
2023-03-28T04:56:33.906Z,100816.81
2023-03-28T04:57:15.949Z,100828.28
2023-03-28T04:58:00.546Z,100837.66
2023-03-28T04:58:42.504Z,100831.44
2023-03-28T04:59:24.248Z,100835.53
2023-03-28T05:00:09.857Z,100835.47
2023-03-28T05:01:10.507Z,100836.94
2023-03-28T05:02:24.463Z,100830.75
2023-03-28T05:03:19.796Z,100828.41
2023-03-28T05:04:13.559Z,100832.41
2023-03-28T05:04:55.437Z,100833.63
2023-03-28T05:05:38.113Z,100839.22
2023-03-28T05:06:25.828Z,100827.69
2023-03-28T05:07:08.101Z,100825.56
2023-03-28T05:07:49.940Z,100841.47
2023-03-28T05:08:35.167Z,100849.22
2023-03-28T05:09:17.649Z,100841.31
2023-03-28T05:09:59.483Z,100837.28
2023-03-28T05:10:48.529Z,100846.44
2023-03-28T05:11:31.158Z,100848.19
2023-03-28T05:12:12.722Z,100831.06
2023-03-28T05:13:20.558Z,100831.88
2023-03-28T05:14:14.379Z,100832.78
2023-03-28T05:15:03.125Z,100829.25
2023-03-28T05:15:47.107Z,100842.81
2023-03-28T05:16:51.439Z,100849.97
2023-03-28T05:18:03.160Z,100837.06
2023-03-28T05:18:47.304Z,100822.78
2023-03-28T05:19:29.764Z,100848.03
2023-03-28T05:20:19.629Z,100849.53
2023-03-28T05:21:06.026Z,100845.25
2023-03-28T05:21:47.716Z,100850.47
2023-03-28T05:22:29.343Z,100849.78
2023-03-28T05:23:14.356Z,100850.34
2023-03-28T05:24:00.870Z,100850.59
2023-03-28T05:24:42.566Z,100860.25
2023-03-28T05:25:36.524Z,100850.44
2023-03-28T05:26:18.187Z,100850.09
2023-03-28T05:27:00.401Z,100858.00
2023-03-28T05:27:42.050Z,100851.13
2023-03-28T05:28:23.888Z,100859.25
2023-03-28T05:29:06.760Z,100868.75
2023-03-28T05:29:48.439Z,100856.22
2023-03-28T05:30:32.066Z,100867.50
2023-03-28T05:31:17.129Z,100848.75
2023-03-28T05:31:59.024Z,100874.47
2023-03-28T05:32:44.661Z,100842.94
2023-03-28T05:33:26.829Z,100873.47
2023-03-28T05:34:10.316Z,100878.19
2023-03-28T05:34:59.204Z,100858.41
2023-03-28T05:35:44.689Z,100879.03
2023-03-28T05:36:27.095Z,100859.25
2023-03-28T05:37:08.736Z,100877.97
2023-03-28T05:38:04.538Z,100875.88
2023-03-28T05:38:46.467Z,100877.56
2023-03-28T05:39:32.074Z,100874.47
2023-03-28T05:40:17.408Z,100849.44
2023-03-28T05:40:59.333Z,100885.81
2023-03-28T05:41:41.252Z,100887.72
2023-03-28T05:42:22.964Z,100882.59
2023-03-28T05:43:04.948Z,100887.88
2023-03-28T05:43:48.213Z,100882.75
2023-03-28T05:44:40.671Z,100883.88
2023-03-28T05:45:37.527Z,100888.03
2023-03-28T05:46:26.838Z,100880.44
2023-03-28T05:47:08.950Z,100884.78
2023-03-28T05:47:52.535Z,100894.38
2023-03-28T05:48:36.820Z,100883.94
2023-03-28T05:49:18.522Z,100873.22
2023-03-28T05:50:01.273Z,100887.88
2023-03-28T05:50:47.375Z,100886.88
2023-03-28T05:51:30.430Z,100886.44
2023-03-28T05:52:13.776Z,100861.94
2023-03-28T05:52:55.877Z,100878.41
2023-03-28T05:53:37.518Z,100889.31
2023-03-28T05:54:19.666Z,100878.88
2023-03-28T05:55:01.479Z,100879.31
2023-03-28T05:55:43.134Z,100875.13
2023-03-28T05:56:25.914Z,100889.66
2023-03-28T05:57:07.927Z,100884.78
2023-03-28T05:57:49.705Z,100882.59
2023-03-28T05:58:33.188Z,100891.25
2023-03-28T05:59:14.828Z,100800.53
2023-03-28T05:59:57.013Z,100887.06
2023-03-28T06:00:39.553Z,100888.81
2023-03-28T06:01:23.359Z,100888.06
2023-03-28T06:02:15.825Z,100891.34
2023-03-28T06:02:59.026Z,100885.63
2023-03-28T06:03:47.722Z,100882.28
2023-03-28T06:04:29.512Z,100873.97
2023-03-28T06:05:12.547Z,100886.53
2023-03-28T06:05:54.404Z,100897.53
2023-03-28T06:06:39.072Z,100880.00
2023-03-28T06:07:35.184Z,100901.91
2023-03-28T06:08:22.217Z,100902.00
2023-03-28T06:09:04.431Z,100903.94
2023-03-28T06:09:58.246Z,100896.47
2023-03-28T06:10:39.926Z,100839.53
2023-03-28T06:11:31.967Z,100899.38
2023-03-28T06:12:21.252Z,100901.31
2023-03-28T06:13:06.341Z,100908.38
2023-03-28T06:13:48.001Z,100899.66
2023-03-28T06:14:29.917Z,100897.19
2023-03-28T06:15:13.276Z,100896.28
2023-03-28T06:15:59.110Z,100900.22
2023-03-28T06:16:46.047Z,100911.06
2023-03-28T06:17:28.359Z,100896.63
2023-03-28T06:18:12.232Z,100912.75
2023-03-28T06:19:10.405Z,100902.50
2023-03-28T06:19:56.631Z,100912.66
2023-03-28T06:20:38.353Z,100888.16
2023-03-28T06:21:20.039Z,100912.66
2023-03-28T06:22:02.849Z,100888.88
2023-03-28T06:22:45.170Z,100919.22
2023-03-28T06:23:26.869Z,100912.16
2023-03-28T06:24:10.430Z,100914.91
2023-03-28T06:24:55.414Z,100911.47
2023-03-28T06:25:55.817Z,100916.75
2023-03-28T06:26:38.421Z,100895.84
2023-03-28T06:27:20.297Z,100907.63
2023-03-28T06:28:02.027Z,100891.56
2023-03-28T06:28:45.445Z,100920.22
2023-03-28T06:29:32.910Z,100905.59
2023-03-28T06:30:17.392Z,100907.03
2023-03-28T06:31:03.163Z,100905.13
2023-03-28T06:31:45.439Z,100902.31
2023-03-28T06:32:28.085Z,100911.31
2023-03-28T06:33:09.678Z,100862.63
2023-03-28T06:33:51.270Z,100862.63
2023-03-28T06:34:35.668Z,100923.91
2023-03-28T06:35:18.251Z,100901.06
2023-03-28T06:35:59.947Z,100903.59
2023-03-28T06:36:45.647Z,100914.41
2023-03-28T06:37:27.418Z,100930.34
2023-03-28T06:38:17.177Z,100903.06
2023-03-28T06:39:04.449Z,100917.00
2023-03-28T06:39:46.325Z,100920.84
2023-03-28T06:40:28.858Z,100916.47
2023-03-28T06:41:11.111Z,100930.47
2023-03-28T06:41:52.793Z,100921.47
2023-03-28T06:42:39.578Z,100916.91
2023-03-28T06:43:56.640Z,100919.56
2023-03-28T06:44:56.794Z,100916.63
2023-03-28T06:45:45.937Z,100866.94
2023-03-28T06:46:29.583Z,100919.50
2023-03-28T06:47:11.301Z,100912.13
2023-03-28T06:47:53.998Z,100925.28
2023-03-28T06:48:43.008Z,100913.53
2023-03-28T06:49:39.804Z,100908.00
2023-03-28T06:50:50.313Z,100913.09
2023-03-28T06:51:34.603Z,100925.63
2023-03-28T06:52:16.744Z,100926.06
2023-03-28T06:53:01.418Z,100848.63
2023-03-28T06:53:43.088Z,100928.50
2023-03-28T06:54:25.097Z,100913.69
2023-03-28T06:55:07.131Z,100921.22
2023-03-28T06:55:52.723Z,100926.34
2023-03-28T06:56:34.641Z,100927.44
2023-03-28T06:57:16.956Z,100886.53
2023-03-28T06:57:59.514Z,100911.72
2023-03-28T06:58:50.907Z,100927.72
2023-03-28T06:59:37.584Z,100917.41
2023-03-28T07:00:22.050Z,100897.84
2023-03-28T07:01:23.703Z,100920.00
2023-03-28T07:02:24.310Z,100908.63
2023-03-28T07:03:09.949Z,100919.84
2023-03-28T07:03:52.780Z,100909.78
2023-03-28T07:04:37.841Z,100908.22
2023-03-28T07:05:19.491Z,100893.56
2023-03-28T07:06:06.745Z,100894.41
2023-03-28T07:06:49.313Z,100908.22
2023-03-28T07:07:31.562Z,100900.06
2023-03-28T07:08:18.708Z,100856.81
2023-03-28T07:09:01.077Z,100899.00
2023-03-28T07:09:54.884Z,100890.19
2023-03-28T07:10:38.761Z,100900.09
2023-03-28T07:11:20.489Z,100897.97
2023-03-28T07:12:05.095Z,100904.16
2023-03-28T07:12:47.522Z,100890.06
2023-03-28T07:13:29.309Z,100905.88
2023-03-28T07:14:15.671Z,100898.41
2023-03-28T07:14:57.658Z,100888.03
2023-03-28T07:15:39.340Z,100878.38
2023-03-28T07:16:21.155Z,100895.16
2023-03-28T07:17:03.977Z,100906.66
2023-03-28T07:17:50.786Z,100870.50
2023-03-28T07:18:35.106Z,100887.41
2023-03-28T07:19:17.598Z,100900.44
2023-03-28T07:20:01.882Z,100873.81
2023-03-28T07:20:45.656Z,100884.97
2023-03-28T07:21:33.817Z,100892.97
2023-03-28T07:22:17.458Z,100893.50
2023-03-28T07:23:02.036Z,100827.34
2023-03-28T07:23:47.241Z,100904.13
2023-03-28T07:24:32.757Z,100848.47
2023-03-28T07:25:21.157Z,100877.03
2023-03-28T07:26:02.890Z,100902.94
2023-03-28T07:26:44.542Z,100889.09
2023-03-28T07:27:31.064Z,100904.41
2023-03-28T07:28:12.811Z,100918.59
2023-03-28T07:28:57.617Z,100913.81
2023-03-28T07:29:39.978Z,100908.91
2023-03-28T07:30:21.814Z,100911.19
2023-03-28T07:31:07.406Z,100856.53
2023-03-28T07:31:49.734Z,100911.06
2023-03-28T07:32:39.359Z,100920.34
2023-03-28T07:33:37.230Z,100909.63
2023-03-28T07:34:24.249Z,100920.72
2023-03-28T07:35:07.889Z,100909.69
2023-03-28T07:35:56.796Z,100908.97
2023-03-28T07:36:39.702Z,100909.19
2023-03-28T07:37:29.009Z,100917.75
2023-03-28T07:38:22.030Z,100919.50
2023-03-28T07:39:10.199Z,100905.38
2023-03-28T07:39:54.484Z,100918.00
2023-03-28T07:40:37.552Z,100919.19
2023-03-28T07:41:19.904Z,100923.09
2023-03-28T07:42:01.786Z,100911.34
2023-03-28T07:42:46.109Z,100905.72
2023-03-28T07:43:27.819Z,100911.75
2023-03-28T07:44:09.469Z,100920.53
2023-03-28T07:44:51.302Z,100857.75
2023-03-28T07:45:35.142Z,100894.47
2023-03-28T07:46:16.930Z,100923.69
2023-03-28T07:46:59.108Z,100934.34
2023-03-28T07:47:41.171Z,100928.53
2023-03-28T07:48:25.948Z,100898.69
2023-03-28T07:49:10.933Z,100928.75
2023-03-28T07:49:52.690Z,100941.91
2023-03-28T07:50:35.219Z,100941.25
2023-03-28T07:51:17.402Z,100909.34
2023-03-28T07:51:59.872Z,100936.75
2023-03-28T07:52:46.602Z,100931.69
2023-03-28T07:53:28.871Z,100935.69
2023-03-28T07:54:17.498Z,100940.84
2023-03-28T07:55:00.646Z,100938.03
2023-03-28T07:55:54.307Z,100943.28
2023-03-28T07:56:42.921Z,100942.25
2023-03-28T07:57:54.496Z,100954.66
2023-03-28T07:58:42.350Z,100926.19
2023-03-28T07:59:28.730Z,100927.56
2023-03-28T08:00:13.101Z,100949.84
2023-03-28T08:01:12.766Z,100943.50
2023-03-28T08:02:17.915Z,100940.81
2023-03-28T08:03:00.761Z,100952.66
2023-03-28T08:03:42.909Z,100946.31
2023-03-28T08:04:27.878Z,100952.84
2023-03-28T08:05:24.101Z,100951.94
2023-03-28T08:06:20.049Z,100964.31
2023-03-28T08:07:07.766Z,100966.56
2023-03-28T08:07:52.346Z,100969.50
2023-03-28T08:08:34.113Z,100975.19
2023-03-28T08:09:24.889Z,100977.41
2023-03-28T08:10:19.781Z,100975.09
2023-03-28T08:11:04.370Z,100978.81
2023-03-28T08:11:48.849Z,100981.00
2023-03-28T08:12:33.591Z,100967.78
2023-03-28T08:13:16.035Z,100970.50
2023-03-28T08:14:00.010Z,100978.94
2023-03-28T08:14:43.393Z,100979.72
2023-03-28T08:15:25.407Z,100948.88
2023-03-28T08:16:08.242Z,100979.94
2023-03-28T08:16:50.492Z,100978.78
2023-03-28T08:17:32.224Z,100985.13
2023-03-28T08:18:17.646Z,100968.19
2023-03-28T08:19:09.775Z,100982.03
2023-03-28T08:20:01.866Z,100973.28
2023-03-28T08:21:15.838Z,100980.13
2023-03-28T08:21:58.761Z,100978.75
2023-03-28T08:22:41.997Z,100990.16
2023-03-28T08:23:42.045Z,100988.94
2023-03-28T08:25:02.377Z,100991.72
2023-03-28T08:25:49.685Z,100923.97
2023-03-28T08:26:34.761Z,100971.53
2023-03-28T08:27:16.673Z,100989.13
2023-03-28T08:28:02.432Z,100993.81
2023-03-28T08:28:44.514Z,100993.81
2023-03-28T08:29:26.263Z,100986.63
2023-03-28T08:30:09.664Z,100957.19
2023-03-28T08:31:02.051Z,100988.69
2023-03-28T08:31:44.388Z,100972.41
2023-03-28T08:32:28.618Z,100991.75
2023-03-28T08:33:11.422Z,100977.53
2023-03-28T08:33:54.662Z,100994.56
2023-03-28T08:34:40.606Z,100994.69
2023-03-28T08:35:28.895Z,100917.41
2023-03-28T08:36:14.955Z,100991.41
2023-03-28T08:36:59.145Z,100979.66
2023-03-28T08:37:42.722Z,100974.19
2023-03-28T08:38:27.092Z,100989.25
2023-03-28T08:39:08.772Z,100985.31
2023-03-28T08:39:50.820Z,100993.34
2023-03-28T08:40:39.158Z,100985.59
2023-03-28T08:41:33.666Z,100982.56
2023-03-28T08:42:19.948Z,100984.53
2023-03-28T08:43:15.456Z,100975.59
2023-03-28T08:44:06.500Z,100987.19
2023-03-28T08:44:57.742Z,100959.53
2023-03-28T08:45:42.859Z,100980.19
2023-03-28T08:46:27.715Z,100977.81
2023-03-28T08:47:16.192Z,100977.31
2023-03-28T08:48:19.223Z,100977.38
2023-03-28T08:49:07.501Z,100957.97
2023-03-28T08:49:59.148Z,100980.66
2023-03-28T08:50:47.893Z,100982.50
2023-03-28T08:51:35.801Z,100978.41
2023-03-28T08:52:20.138Z,100983.66
2023-03-28T08:53:16.292Z,100960.72
2023-03-28T08:54:05.052Z,100987.13
2023-03-28T08:54:54.923Z,100983.25
2023-03-28T08:55:42.849Z,100990.78
2023-03-28T08:56:24.563Z,100980.31
2023-03-28T08:57:17.396Z,100987.16
2023-03-28T08:57:59.690Z,100966.88
2023-03-28T08:58:54.656Z,100985.16
2023-03-28T09:00:08.996Z,100968.72
2023-03-28T09:00:54.094Z,100980.19
2023-03-28T09:01:36.551Z,100996.13
2023-03-28T09:02:25.058Z,100990.50
2023-03-28T09:03:13.306Z,100985.16
2023-03-28T09:03:56.253Z,100976.88
2023-03-28T09:04:41.873Z,100984.50
2023-03-28T09:05:48.449Z,100934.16
2023-03-28T09:06:42.557Z,100936.16
2023-03-28T09:07:47.414Z,100977.00
2023-03-28T09:08:52.047Z,100984.00
2023-03-28T09:09:49.024Z,100980.81